Central, Connecticut
Current Conditions -  °F | °C
As of 9:53 PM on Tuesday 21 Oct 2014 (Local Time) from KHFD Reporting Station
Overcast Overcast  
Wind Chill: 55°   Ceiling: 2200
Heat Index: 55°   Visibility: 10mi
Dew Point: 50°   Wind: 8mph
Humidity: 83%   Direction: 20°NNE
Pressure: 29.95"   Gusts: NA
Location:  41.7665°N, 72.6731°W
Report Text: KHFD 220153Z 02007KT 10SM BKN022 BKN026 OVC080 13/10 A2995 RMK AO2 RAE16 SLP141 P0000 T01280100
Loading
Personal Weather Stations






























Interactive Weather Map
Tropical Storm Tracking
New forecast layout! Learn more

10-Day Weather Forecast

Advertisements
Track Severe Weather on mobile